KGSP

Greenville-Spartanburg International Airport

Airport
ICAO code
KGSP
IATA Code
GSP
Summary
ICAO Region
NAM
ICAO Territory
Location

Greer, South Carolina

Serving
Greenville
Elevation
964 ft
Coordinates
34° 53' 45" N , 82° 13' 8" W
KCC
Airport RE
Engineered Materials Arresting System
Metar
KGSP 222053Z 23011KT 10SM CLR 19/01 A2983 RMK AO2 SLP099 T01940011 56041

Greenville-Spartanburg International Airport, also known as GSP International Airport or Roger Milliken Field, is located 3 nm south of central Greer; the airport serves Greenville and Spartanburg in the Upstate region of South Carolina, USA.

Airport map

Aerial View

SKYbrary Partners:

Safety knowledge contributed by: